Time;durP1;ratioP1;P1;durP2;ratioP2;P2;SDS_P1;SDS_P2;PMS_P1;PMS_P2;Temp;Humidity;BMP_temperature;BMP_pressure;BME280_temperature;BME280_humidity;BME280_pressure;Samples;Min_cycle;Max_cycle;Signal;HPM_P1;HPM_P2
2023/06/19 00:00:16;;;;;;;1999.90;999.90;;;21.20;86.80;;;;;;5015084;28;20030;-78
2023/06/19 00:02:42;;;;;;;1999.90;999.90;;;21.20;87.10;;;;;;5014691;28;20040;-77
2023/06/19 00:05:09;;;;;;;1999.90;999.90;;;21.20;87.30;;;;;;5015992;28;20062;-78
2023/06/19 00:07:36;;;;;;;1999.90;999.90;;;21.10;87.20;;;;;;5015073;28;20050;-77
2023/06/19 00:10:03;;;;;;;1999.90;999.90;;;21.10;87.70;;;;;;5016233;28;20460;-77
2023/06/19 00:12:28;;;;;;;1999.90;999.90;;;21.10;87.90;;;;;;5015883;28;20556;-77
2023/06/19 00:14:54;;;;;;;1999.90;999.90;;;21.10;87.60;;;;;;5031277;28;20117;-78
2023/06/19 00:17:19;;;;;;;1999.90;999.90;;;21.00;88.00;;;;;;5015900;28;20111;-77
2023/06/19 00:19:45;;;;;;;1999.90;999.90;;;21.10;87.80;;;;;;5016370;28;20370;-77
2023/06/19 00:22:10;;;;;;;1999.90;999.90;;;21.00;87.80;;;;;;5014132;28;20030;-77
2023/06/19 00:24:36;;;;;;;1999.90;999.90;;;21.00;88.20;;;;;;5016340;28;20396;-77
2023/06/19 00:27:02;;;;;;;1999.90;999.90;;;20.90;88.20;;;;;;5015784;28;20041;-77
2023/06/19 00:29:29;;;;;;;1999.90;999.90;;;20.90;88.50;;;;;;5015891;28;20045;-77
2023/06/19 00:31:55;;;;;;;1999.90;999.90;;;20.80;89.80;;;;;;5015712;28;20030;-77
2023/06/19 00:34:20;;;;;;;1999.90;999.90;;;20.70;89.40;;;;;;5014633;28;20040;-77
2023/06/19 00:36:46;;;;;;;1999.90;999.90;;;20.70;90.00;;;;;;5015949;28;20400;-78
2023/06/19 00:39:12;;;;;;;1999.90;999.90;;;20.60;90.10;;;;;;5016558;28;20780;-77
2023/06/19 00:41:38;;;;;;;1999.90;999.90;;;20.60;90.40;;;;;;5014112;28;20027;-77
2023/06/19 00:44:03;;;;;;;1999.90;999.90;;;20.60;90.30;;;;;;5014443;28;20034;-77
2023/06/19 00:46:29;;;;;;;1999.90;999.90;;;20.50;90.40;;;;;;5015493;28;20077;-77
2023/06/19 00:48:55;;;;;;;1999.90;999.90;;;20.50;90.90;;;;;;5014399;28;20035;-77
2023/06/19 00:51:21;;;;;;;1999.90;999.90;;;20.40;90.80;;;;;;5014758;28;20034;-77
2023/06/19 00:53:47;;;;;;;1999.90;999.90;;;20.60;90.70;;;;;;5017843;28;20108;-77
2023/06/19 00:56:12;;;;;;;1999.90;999.90;;;20.60;90.70;;;;;;5014165;28;20088;-77
2023/06/19 00:58:38;;;;;;;1999.90;999.90;;;20.60;90.70;;;;;;5030652;28;20030;-77
2023/06/19 01:01:05;;;;;;;1999.90;999.90;;;20.60;90.50;;;;;;5013754;28;20412;-77
2023/06/19 01:03:30;;;;;;;1999.90;999.90;;;20.60;90.40;;;;;;5015683;28;20039;-77
2023/06/19 01:06:00;;;;;;;1999.90;999.90;;;20.60;90.40;;;;;;5015091;28;20061;-77
2023/06/19 01:08:46;;;;;;;1999.90;999.90;;;20.60;90.50;;;;;;5013276;28;20042;-77
2023/06/19 01:11:17;;;;;;;1999.90;999.90;;;20.50;90.70;;;;;;5015492;28;20026;-77
2023/06/19 01:14:05;;;;;;;1999.90;999.90;;;20.50;90.70;;;;;;5015617;28;20034;-77
2023/06/19 01:16:32;;;;;;;1999.90;999.90;;;20.50;91.00;;;;;;5013949;28;20405;-77
2023/06/19 01:18:58;;;;;;;1999.90;999.90;;;20.50;91.10;;;;;;5015268;28;20572;-77
2023/06/19 01:21:23;;;;;;;1999.90;999.90;;;20.60;91.10;;;;;;5013660;28;20037;-77
2023/06/19 01:23:49;;;;;;;1999.90;999.90;;;20.50;91.20;;;;;;5015239;28;20049;-77
2023/06/19 01:26:17;;;;;;;1999.90;999.90;;;20.50;91.10;;;;;;5013731;28;20516;-77
2023/06/19 01:28:44;;;;;;;1999.90;999.90;;;20.60;91.20;;;;;;5013723;28;20042;-77
2023/06/19 01:31:16;;;;;;;1999.90;999.90;;;20.50;90.90;;;;;;5013460;28;20036;-77
2023/06/19 01:33:44;;;;;;;1999.90;999.90;;;20.60;90.20;;;;;;5015106;28;20038;-77
2023/06/19 01:36:11;;;;;;;1999.90;999.90;;;20.80;89.10;;;;;;5015075;28;20045;-77
2023/06/19 01:38:37;;;;;;;1999.90;999.90;;;21.30;86.70;;;;;;5013805;28;20117;-79
2023/06/19 01:41:06;;;;;;;1999.90;999.90;;;21.80;85.00;;;;;;5013408;28;20093;-77
2023/06/19 01:43:32;;;;;;;1999.90;999.90;;;22.10;83.80;;;;;;5013621;28;20085;-77
2023/06/19 01:46:00;;;;;;;1999.90;999.90;;;22.20;83.80;;;;;;5014723;28;20066;-78
2023/06/19 01:48:26;;;;;;;1999.90;999.90;;;22.20;84.40;;;;;;5015066;28;20407;-77
2023/06/19 01:50:52;;;;;;;1999.90;999.90;;;22.30;83.60;;;;;;5013217;28;20026;-76
2023/06/19 01:53:17;;;;;;;1999.90;999.90;;;22.20;83.90;;;;;;5015184;28;20038;-77
2023/06/19 01:55:43;;;;;;;1999.90;999.90;;;22.20;84.70;;;;;;5012950;28;20041;-77
2023/06/19 01:58:08;;;;;;;1999.90;999.90;;;22.10;85.20;;;;;;5029804;28;20129;-78
2023/06/19 02:00:37;;;;;;;1999.90;999.90;;;22.10;85.50;;;;;;5014688;28;20042;-77
2023/06/19 02:03:04;;;;;;;1999.90;999.90;;;22.20;86.00;;;;;;5014474;28;20511;-77
2023/06/19 02:05:32;;;;;;;1999.90;999.90;;;22.10;86.40;;;;;;5014840;28;20042;-77
2023/06/19 02:07:58;;;;;;;1999.90;999.90;;;21.90;87.00;;;;;;5012830;28;20074;-77
2023/06/19 02:10:24;;;;;;;1999.90;999.90;;;22.00;87.40;;;;;;5012934;28;20110;-77
2023/06/19 02:12:49;;;;;;;1999.90;999.90;;;21.90;87.50;;;;;;5014251;28;20041;-77
2023/06/19 02:15:15;;;;;;;1999.90;999.90;;;21.90;88.00;;;;;;5014332;28;20035;-77
2023/06/19 02:17:42;;;;;;;1999.90;999.90;;;21.90;88.00;;;;;;5013033;28;20093;-77
2023/06/19 02:20:11;;;;;;;1999.90;999.90;;;21.80;88.60;;;;;;5014690;28;20053;-77
2023/06/19 02:22:39;;;;;;;1999.90;999.90;;;21.80;88.70;;;;;;5012594;28;20522;-77
2023/06/19 02:25:06;;;;;;;1999.90;999.90;;;21.80;89.20;;;;;;5014148;28;20065;-77
2023/06/19 02:27:32;;;;;;;1999.90;999.90;;;21.80;89.50;;;;;;5016175;28;20034;-77
2023/06/19 02:29:57;;;;;;;1999.90;999.90;;;21.90;89.80;;;;;;5016436;28;20030;-77
2023/06/19 02:32:23;;;;;;;1999.90;999.90;;;21.80;89.90;;;;;;5016306;28;20038;-77
2023/06/19 02:34:48;;;;;;;1999.90;999.90;;;21.90;90.00;;;;;;5032904;28;20081;-77
2023/06/19 02:37:14;;;;;;;1999.90;999.90;;;21.90;90.10;;;;;;5017813;28;20089;-77
2023/06/19 02:39:40;;;;;;;1999.90;999.90;;;21.90;90.20;;;;;;5017769;28;20114;-77
2023/06/19 02:42:06;;;;;;;1999.90;999.90;;;21.90;90.30;;;;;;5017584;28;20054;-77
2023/06/19 02:44:32;;;;;;;1999.90;999.90;;;21.90;90.40;;;;;;5017557;28;20058;-77
2023/06/19 02:46:57;;;;;;;1999.90;999.90;;;21.90;90.40;;;;;;5032807;28;20559;-77
2023/06/19 02:49:23;;;;;;;1999.90;999.90;;;21.90;90.70;;;;;;5017538;28;20046;-77
2023/06/19 02:51:48;;;;;;;1999.90;999.90;;;21.70;90.60;;;;;;5017851;28;20038;-78
2023/06/19 02:54:14;;;;;;;1999.90;999.90;;;21.80;90.80;;;;;;5032597;28;20034;-77
2023/06/19 02:56:39;;;;;;;1999.90;999.90;;;21.70;90.80;;;;;;5033290;28;20033;-77
2023/06/19 02:59:05;;;;;;;1999.90;999.90;;;21.60;91.00;;;;;;5018089;28;20515;-77
2023/06/19 03:01:31;;;;;;;1999.90;999.90;;;21.60;91.00;;;;;;5015645;28;20041;-77
2023/06/19 03:03:56;;;;;;;1999.90;999.90;;;21.60;91.10;;;;;;5017662;28;20034;-77
2023/06/19 03:06:22;;;;;;;1999.90;999.90;;;21.60;91.20;;;;;;5016860;28;20050;-77
2023/06/19 03:08:47;;;;;;;1999.90;999.90;;;21.70;91.60;;;;;;5017269;28;20121;-77
2023/06/19 03:11:13;;;;;;;1999.90;999.90;;;21.50;91.70;;;;;;5015655;28;20121;-77
2023/06/19 03:13:53;;;;;;;1999.90;999.90;;;21.40;91.70;;;;;;5015816;28;20113;-77
2023/06/19 03:16:20;;;;;;;1999.90;999.90;;;21.40;93.70;;;;;;5015517;28;20452;-77
2023/06/19 03:18:46;;;;;;;1999.90;999.90;;;21.40;94.20;;;;;;5017078;28;20513;-77
2023/06/19 03:21:15;;;;;;;1999.90;999.90;;;21.20;94.90;;;;;;5015422;28;20121;-77
2023/06/19 03:23:41;;;;;;;1999.90;999.90;;;21.00;96.00;;;;;;5017077;28;20064;-77
2023/06/19 03:26:08;;;;;;;1999.90;999.90;;;20.80;96.80;;;;;;5016657;28;22593;-77
2023/06/19 03:28:33;;;;;;;1999.90;999.90;;;20.70;96.90;;;;;;5017016;28;20118;-77
2023/06/19 03:30:59;;;;;;;1999.90;999.90;;;20.60;97.10;;;;;;5015140;28;20574;-77
2023/06/19 03:33:24;;;;;;;1999.90;999.90;;;20.50;97.60;;;;;;5017179;28;20045;-77
2023/06/19 03:35:50;;;;;;;1999.90;999.90;;;20.50;98.00;;;;;;5016935;28;20105;-77
2023/06/19 03:38:16;;;;;;;1999.90;999.90;;;20.50;98.70;;;;;;5014923;28;20042;-77
2023/06/19 03:40:41;;;;;;;1999.90;999.90;;;20.40;98.60;;;;;;5017140;28;20061;-77
2023/06/19 03:43:07;;;;;;;1999.90;999.90;;;20.40;98.70;;;;;;5015496;28;20035;-77
2023/06/19 03:45:32;;;;;;;1999.90;999.90;;;20.40;98.50;;;;;;5016931;28;20038;-77
2023/06/19 03:47:59;;;;;;;1999.90;999.90;;;20.30;98.30;;;;;;5017096;28;20038;-77
2023/06/19 03:50:24;;;;;;;1999.90;999.90;;;20.30;98.40;;;;;;5018077;28;20089;-77
2023/06/19 03:52:50;;;;;;;1999.90;999.90;;;20.30;98.60;;;;;;5016811;28;20042;-76
2023/06/19 03:55:15;;;;;;;1999.90;999.90;;;20.20;98.80;;;;;;5017870;28;20049;-77
2023/06/19 03:57:41;;;;;;;1999.90;999.90;;;20.20;98.60;;;;;;5015688;28;20041;-77
2023/06/19 04:00:07;;;;;;;1999.90;999.90;;;20.30;98.90;;;;;;5016259;28;20038;-77
2023/06/19 04:02:34;;;;;;;1999.90;999.90;;;20.30;99.10;;;;;;5016557;28;20040;-77
2023/06/19 04:04:59;;;;;;;1999.90;999.90;;;20.30;99.00;;;;;;5017004;28;20033;-77
2023/06/19 04:07:25;;;;;;;1999.90;999.90;;;20.40;99.10;;;;;;5016256;28;20046;-77
2023/06/19 04:09:50;;;;;;;1999.90;999.90;;;20.40;99.00;;;;;;5015055;28;20038;-77
2023/06/19 04:12:16;;;;;;;1999.90;999.90;;;20.50;99.10;;;;;;5014616;28;20034;-77
2023/06/19 04:14:41;;;;;;;1999.90;999.90;;;20.60;99.00;;;;;;5016432;28;20034;-77
2023/06/19 04:17:07;;;;;;;1999.90;999.90;;;20.70;99.10;;;;;;5015938;28;20030;-77
2023/06/19 04:19:32;;;;;;;1999.90;999.90;;;20.70;98.80;;;;;;5016390;28;20042;-77
2023/06/19 04:21:58;;;;;;;1999.90;999.90;;;20.60;98.60;;;;;;5016121;28;20044;-77
2023/06/19 04:24:23;;;;;;;1999.90;999.90;;;20.70;98.60;;;;;;5015113;28;20066;-77
2023/06/19 04:26:49;;;;;;;1999.90;999.90;;;20.80;98.80;;;;;;5014535;28;20034;-77
2023/06/19 04:29:16;;;;;;;1999.90;999.90;;;20.90;98.60;;;;;;5014814;28;20093;-77
2023/06/19 04:31:46;;;;;;;1999.90;999.90;;;20.80;98.90;;;;;;5017832;28;20030;-77
2023/06/19 04:34:14;;;;;;;1999.90;999.90;;;20.90;98.70;;;;;;5018051;28;20038;-77
2023/06/19 04:36:40;;;;;;;1999.90;999.90;;;20.90;98.40;;;;;;5016437;28;20034;-77
2023/06/19 04:39:06;;;;;;;1999.90;999.90;;;21.00;98.60;;;;;;5016872;28;20038;-77
2023/06/19 04:41:31;;;;;;;1999.90;999.90;;;21.10;98.40;;;;;;5017370;28;20030;-77
2023/06/19 04:43:57;;;;;;;1999.90;999.90;;;21.10;98.30;;;;;;5015395;28;20488;-77
2023/06/19 04:46:23;;;;;;;1999.90;999.90;;;21.00;98.50;;;;;;5016317;28;20030;-78
2023/06/19 04:48:51;;;;;;;1999.90;999.90;;;21.00;98.60;;;;;;5016244;28;20050;-77
2023/06/19 04:51:20;;;;;;;1999.90;999.90;;;20.90;98.60;;;;;;5015689;28;20416;-77
2023/06/19 04:53:46;;;;;;;1999.90;999.90;;;21.00;98.60;;;;;;5016094;28;20038;-77
2023/06/19 04:56:12;;;;;;;1999.90;999.90;;;21.00;98.60;;;;;;5015605;28;20050;-77
2023/06/19 04:58:45;;;;;;;1999.90;999.90;;;21.10;98.60;;;;;;5016127;28;20038;-77
2023/06/19 05:01:12;;;;;;;1999.90;999.90;;;21.10;98.40;;;;;;5016563;28;20096;-77
2023/06/19 05:03:38;;;;;;;1999.90;999.90;;;21.20;98.40;;;;;;5018283;28;20036;-78
2023/06/19 05:06:03;;;;;;;1999.90;999.90;;;21.30;98.20;;;;;;5016161;28;20357;-77
2023/06/19 05:08:29;;;;;;;1999.90;999.90;;;21.30;98.40;;;;;;5015226;28;20129;-77
2023/06/19 05:10:54;;;;;;;1999.90;999.90;;;21.40;98.20;;;;;;5014470;28;20039;-77
2023/06/19 05:13:20;;;;;;;1999.90;999.90;;;21.40;98.00;;;;;;5030816;28;20057;-77
2023/06/19 05:15:45;;;;;;;1999.90;999.90;;;21.40;98.40;;;;;;5016263;28;20437;-77
2023/06/19 05:18:11;;;;;;;1999.90;999.90;;;21.50;98.60;;;;;;5015044;28;20488;-77
2023/06/19 05:20:37;;;;;;;1999.90;999.90;;;21.40;97.80;;;;;;5015819;28;20037;-77
2023/06/19 05:23:02;;;;;;;1999.90;999.90;;;21.50;97.90;;;;;;5015294;28;20396;-78
2023/06/19 05:25:28;;;;;;;1999.90;999.90;;;21.40;98.10;;;;;;5014210;28;20503;-78
2023/06/19 05:27:53;;;;;;;1999.90;999.90;;;21.40;97.80;;;;;;5015769;28;20457;-77
2023/06/19 05:30:19;;;;;;;1999.90;999.90;;;21.60;97.70;;;;;;5016147;28;20572;-77
2023/06/19 05:32:44;;;;;;;1999.90;999.90;;;21.70;97.50;;;;;;5014260;28;20034;-77
2023/06/19 05:35:10;;;;;;;1999.90;999.90;;;21.70;97.30;;;;;;5014406;28;20507;-77
2023/06/19 05:37:35;;;;;;;1999.90;999.90;;;21.60;96.90;;;;;;5016289;28;20030;-77
2023/06/19 05:40:01;;;;;;;1999.90;999.90;;;21.70;96.70;;;;;;5014192;28;20034;-77
2023/06/19 05:42:27;;;;;;;1999.90;999.90;;;21.70;96.90;;;;;;5015266;28;20125;-77
2023/06/19 05:44:52;;;;;;;1999.90;999.90;;;21.80;96.90;;;;;;5015719;28;20506;-77
2023/06/19 05:47:20;;;;;;;1999.90;999.90;;;21.70;96.60;;;;;;5015477;28;20121;-77
2023/06/19 05:49:46;;;;;;;1999.90;999.90;;;21.80;97.10;;;;;;5015433;28;20038;-77
2023/06/19 05:52:12;;;;;;;1999.90;999.90;;;21.80;96.90;;;;;;5013499;28;20088;-77
2023/06/19 05:54:37;;;;;;;1999.90;999.90;;;21.90;96.50;;;;;;5015196;28;20551;-77
2023/06/19 05:57:03;;;;;;;1999.90;999.90;;;22.00;96.20;;;;;;5013862;28;20035;-77
2023/06/19 05:59:29;;;;;;;1999.90;999.90;;;22.10;96.30;;;;;;5015356;28;20389;-77
2023/06/19 06:01:55;;;;;;;1999.90;999.90;;;22.20;96.00;;;;;;5014671;28;20034;-77
2023/06/19 06:04:21;;;;;;;1999.90;999.90;;;22.30;96.00;;;;;;5015298;28;20034;-77
2023/06/19 06:06:47;;;;;;;1999.90;999.90;;;22.30;95.10;;;;;;5017600;28;20038;-79
2023/06/19 06:09:14;;;;;;;1999.90;999.90;;;22.50;95.30;;;;;;5021414;28;20047;-79
2023/06/19 06:11:40;;;;;;;1999.90;999.90;;;22.50;95.10;;;;;;5020309;28;20026;-79
2023/06/19 06:14:05;;;;;;;1999.90;999.90;;;22.50;94.80;;;;;;5021882;28;20042;-79
2023/06/19 06:16:31;;;;;;;1999.90;999.90;;;22.50;95.00;;;;;;5021647;28;20129;-79
2023/06/19 06:18:56;;;;;;;1999.90;999.90;;;22.40;95.30;;;;;;5037032;28;20101;-79
2023/06/19 06:21:22;;;;;;;1999.90;999.90;;;22.30;94.90;;;;;;5021085;28;20069;-79
2023/06/19 06:23:48;;;;;;;1999.90;999.90;;;22.20;95.00;;;;;;5022961;28;20034;-79
2023/06/19 06:26:14;;;;;;;1999.90;999.90;;;22.20;95.30;;;;;;5021141;28;20040;-79
2023/06/19 06:28:40;;;;;;;1999.90;999.90;;;22.10;95.60;;;;;;5021220;28;20042;-79
2023/06/19 06:31:05;;;;;;;1999.90;999.90;;;22.30;95.50;;;;;;5022032;28;20030;-79
2023/06/19 06:33:31;;;;;;;1999.90;999.90;;;22.20;95.70;;;;;;5021528;28;20038;-79
2023/06/19 06:35:57;;;;;;;1999.90;999.90;;;22.20;95.70;;;;;;5038571;28;20082;-80
2023/06/19 06:38:24;;;;;;;1999.90;999.90;;;22.10;95.80;;;;;;5022599;28;20042;-79
2023/06/19 06:40:50;;;;;;;1999.90;999.90;;;22.00;96.00;;;;;;5022345;28;20042;-79
2023/06/19 06:43:16;;;;;;;1999.90;999.90;;;22.20;95.70;;;;;;5021672;28;20042;-79
2023/06/19 06:45:42;;;;;;;1999.90;999.90;;;22.30;95.30;;;;;;5020785;28;20035;-80
2023/06/19 06:48:08;;;;;;;1999.90;999.90;;;22.40;94.80;;;;;;5020142;28;20121;-79
2023/06/19 06:50:33;;;;;;;1999.90;999.90;;;22.40;94.80;;;;;;5021029;28;20030;-79
2023/06/19 06:53:00;;;;;;;1999.90;999.90;;;22.50;95.00;;;;;;5019724;28;20054;-79
2023/06/19 06:55:25;;;;;;;1999.90;999.90;;;22.60;94.70;;;;;;5019049;28;20026;-79
2023/06/19 06:57:57;;;;;;;1999.90;999.90;;;22.60;95.10;;;;;;5037214;28;20392;-79
2023/06/19 07:00:23;;;;;;;1999.90;999.90;;;22.70;95.00;;;;;;5019600;28;20026;-79
2023/06/19 07:02:50;;;;;;;1999.90;999.90;;;22.90;94.40;;;;;;5019047;28;20514;-79
2023/06/19 07:05:15;;;;;;;1999.90;999.90;;;23.00;94.20;;;;;;5018218;28;20026;-79
2023/06/19 07:07:41;;;;;;;1999.90;999.90;;;23.30;94.00;;;;;;5016637;28;20047;-78
2023/06/19 07:10:07;;;;;;;1999.90;999.90;;;23.50;93.60;;;;;;5022155;28;20042;-79
2023/06/19 07:12:33;;;;;;;1999.90;999.90;;;23.80;93.30;;;;;;5026340;28;20026;-80
2023/06/19 07:14:59;;;;;;;1999.90;999.90;;;24.00;92.50;;;;;;5027577;28;20061;-79
2023/06/19 07:17:24;;;;;;;1999.90;999.90;;;24.30;92.40;;;;;;5029403;28;20037;-79
2023/06/19 07:19:50;;;;;;;1999.90;999.90;;;24.30;92.20;;;;;;5030425;28;20030;-80
2023/06/19 07:22:16;;;;;;;1999.90;999.90;;;24.70;91.60;;;;;;5042236;28;20038;-79
2023/06/19 07:24:41;;;;;;;1999.90;999.90;;;24.90;91.90;;;;;;5039005;28;20030;-79
2023/06/19 07:27:07;;;;;;;1999.90;999.90;;;25.20;91.00;;;;;;5023172;28;20400;-79
2023/06/19 07:29:32;;;;;;;1999.90;999.90;;;25.40;90.60;;;;;;5025663;28;20098;-80
2023/06/19 07:31:58;;;;;;;1999.90;999.90;;;25.30;90.20;;;;;;5025322;28;20518;-79
2023/06/19 07:34:24;;;;;;;1999.90;999.90;;;25.30;89.70;;;;;;5023251;28;20038;-79
2023/06/19 07:36:50;;;;;;;1999.90;999.90;;;25.00;89.60;;;;;;5023899;28;20440;-79
2023/06/19 07:39:15;;;;;;;1999.90;999.90;;;24.90;90.40;;;;;;5022929;28;20036;-79
2023/06/19 07:41:41;;;;;;;1999.90;999.90;;;25.00;90.60;;;;;;5023597;28;20032;-79
2023/06/19 07:44:07;;;;;;;1999.90;999.90;;;24.90;90.30;;;;;;5020825;28;20046;-79
2023/06/19 07:46:33;;;;;;;1999.90;999.90;;;24.70;90.60;;;;;;5022928;28;20039;-79
2023/06/19 07:48:58;;;;;;;1999.90;999.90;;;24.70;90.40;;;;;;5040380;28;20515;-79
2023/06/19 07:51:24;;;;;;;1999.90;999.90;;;24.80;89.70;;;;;;5022290;28;20049;-80
2023/06/19 07:53:50;;;;;;;1999.90;999.90;;;24.80;90.10;;;;;;5022430;28;20105;-79
2023/06/19 07:56:15;;;;;;;1999.90;999.90;;;25.00;88.70;;;;;;5039223;28;20014;-79
2023/06/19 07:58:41;;;;;;;1999.90;999.90;;;25.10;88.70;;;;;;5023161;28;20096;-79
2023/06/19 08:01:06;;;;;;;1999.90;999.90;;;25.30;87.70;;;;;;5024415;28;20031;-79
2023/06/19 08:03:32;;;;;;;1999.90;999.90;;;25.40;87.00;;;;;;5022311;28;20081;-79
2023/06/19 08:05:58;;;;;;;1999.90;999.90;;;25.50;87.00;;;;;;5022216;28;20074;-79
2023/06/19 08:08:23;;;;;;;1999.90;999.90;;;25.90;86.10;;;;;;5021429;28;20042;-79
2023/06/19 08:10:49;;;;;;;1999.90;999.90;;;26.50;85.90;;;;;;5022276;28;20035;-79
2023/06/19 08:13:14;;;;;;;1999.90;999.90;;;27.20;83.10;;;;;;5023898;28;20038;-79
2023/06/19 08:15:40;;;;;;;1999.90;999.90;;;27.70;81.60;;;;;;5019685;28;20092;-79
2023/06/19 08:18:05;;;;;;;1999.90;999.90;;;27.70;81.00;;;;;;5020989;28;20046;-80
2023/06/19 08:20:31;;;;;;;1999.90;999.90;;;28.00;79.80;;;;;;5022539;28;20062;-80
2023/06/19 08:22:56;;;;;;;1999.90;999.90;;;28.60;79.40;;;;;;5020847;28;20030;-80
2023/06/19 08:25:22;;;;;;;1999.90;999.90;;;29.40;78.30;;;;;;5019244;28;20038;-79
2023/06/19 08:27:48;;;;;;;1999.90;999.90;;;29.30;76.60;;;;;;5019627;28;20077;-80
2023/06/19 08:30:14;;;;;;;1999.90;999.90;;;29.30;75.60;;;;;;5019307;28;20085;-79
2023/06/19 08:32:39;;;;;;;1999.90;999.90;;;29.20;76.20;;;;;;5035950;28;20038;-79
2023/06/19 08:35:05;;;;;;;1999.90;999.90;;;28.80;77.40;;;;;;5021420;28;20046;-79
2023/06/19 08:37:30;;;;;;;1999.90;999.90;;;28.40;78.90;;;;;;5019589;28;20043;-79
2023/06/19 08:39:56;;;;;;;1999.90;999.90;;;28.20;80.50;;;;;;5019680;28;20037;-79
2023/06/19 08:42:22;;;;;;;1999.90;999.90;;;28.20;78.90;;;;;;5019350;28;20027;-79
2023/06/19 08:44:49;;;;;;;1999.90;999.90;;;28.00;79.10;;;;;;5018510;28;20524;-79
2023/06/19 08:47:14;;;;;;;1999.90;999.90;;;27.80;80.00;;;;;;5017983;28;20489;-79
2023/06/19 08:49:40;;;;;;;1999.90;999.90;;;27.50;80.80;;;;;;5017804;28;20038;-79
2023/06/19 08:52:06;;;;;;;1999.90;999.90;;;27.00;81.60;;;;;;5017758;28;20041;-79
2023/06/19 08:54:32;;;;;;;1999.90;999.90;;;27.00;82.50;;;;;;5015627;28;20180;-79
2023/06/19 08:57:02;;;;;;;1999.90;999.90;;;27.00;82.50;;;;;;5017040;28;20129;-79
2023/06/19 08:59:31;;;;;;;1999.90;999.90;;;27.00;82.30;;;;;;5015903;28;20045;-79
2023/06/19 09:01:57;;;;;;;1999.90;999.90;;;26.60;82.70;;;;;;5016991;28;20895;-79
2023/06/19 09:04:28;;;;;;;1999.90;999.90;;;26.30;83.80;;;;;;5017218;28;20049;-78
2023/06/19 09:07:02;;;;;;;1999.90;999.90;;;26.50;83.90;;;;;;5016360;28;20035;-79
2023/06/19 09:09:28;;;;;;;1999.90;999.90;;;26.90;83.90;;;;;;5015814;28;20038;-79
2023/06/19 09:11:57;;;;;;;1999.90;999.90;;;27.30;83.30;;;;;;5017076;28;20031;-79
2023/06/19 09:14:41;;;;;;;1999.90;999.90;;;27.70;82.40;;;;;;5019863;28;20038;-80
2023/06/19 09:17:27;;;;;;;1999.90;999.90;;;28.20;81.10;;;;;;5017945;28;20026;-79
2023/06/19 09:19:57;;;;;;;1999.90;999.90;;;28.50;79.30;;;;;;5015820;28;20042;-79
2023/06/19 09:22:24;;;;;;;1999.90;999.90;;;28.70;78.40;;;;;;5017332;28;20041;-79
2023/06/19 09:24:50;;;;;;;1999.90;999.90;;;28.90;78.00;;;;;;5032772;28;20100;-78
2023/06/19 09:27:18;;;;;;;1999.90;999.90;;;28.70;77.40;;;;;;5017155;28;20084;-79
2023/06/19 09:29:49;;;;;;;1999.90;999.90;;;28.30;79.20;;;;;;5015844;28;20031;-79
2023/06/19 09:32:28;;;;;;;1999.90;999.90;;;28.40;79.70;;;;;;5017088;28;20026;-80
2023/06/19 09:34:58;;;;;;;1999.90;999.90;;;28.70;78.90;;;;;;5017592;28;20045;-79
2023/06/19 09:37:29;;;;;;;1999.90;999.90;;;29.20;79.00;;;;;;5032959;28;20535;-79
2023/06/19 09:40:00;;;;;;;1999.90;999.90;;;29.90;76.30;;;;;;5018891;28;20058;-79
2023/06/19 09:42:32;;;;;;;1999.90;999.90;;;30.10;74.30;;;;;;5016313;28;20050;-79
2023/06/19 09:45:04;;;;;;;1999.90;999.90;;;29.60;76.20;;;;;;5017577;28;20440;-79
2023/06/19 09:47:43;;;;;;;1999.90;999.90;;;28.80;76.80;;;;;;5017765;28;20030;-79
2023/06/19 09:50:12;;;;;;;1999.90;999.90;;;28.50;78.30;;;;;;5033431;28;20043;-79
2023/06/19 09:52:40;;;;;;;1999.90;999.90;;;28.90;77.30;;;;;;5016450;28;20030;-79
2023/06/19 09:55:08;;;;;;;1999.90;999.90;;;29.20;76.00;;;;;;5017934;28;20038;-79
2023/06/19 09:57:34;;;;;;;1999.90;999.90;;;29.50;77.20;;;;;;5016303;28;20027;-79
2023/06/19 10:00:10;;;;;;;1999.90;999.90;;;29.20;76.70;;;;;;5017562;28;20030;-79
2023/06/19 10:02:36;;;;;;;1999.90;999.90;;;28.80;76.40;;;;;;5015053;28;20045;-79
2023/06/19 10:05:01;;;;;;;1999.90;999.90;;;28.50;78.20;;;;;;5017103;28;20034;-79
2023/06/19 10:07:33;;;;;;;1999.90;999.90;;;28.50;78.10;;;;;;5019049;28;20042;-80
2023/06/19 10:10:06;;;;;;;1999.90;999.90;;;29.10;76.90;;;;;;5017623;28;20034;-79
2023/06/19 10:12:46;;;;;;;1999.90;999.90;;;29.50;76.30;;;;;;5017222;28;20030;-79
2023/06/19 10:15:20;;;;;;;1999.90;999.90;;;29.50;75.50;;;;;;5019237;28;20123;-79
2023/06/19 10:17:50;;;;;;;1999.90;999.90;;;29.10;76.50;;;;;;5018940;28;20030;-79
2023/06/19 10:20:31;;;;;;;1999.90;999.90;;;29.00;77.80;;;;;;5032313;28;20034;-79
2023/06/19 10:23:03;;;;;;;1999.90;999.90;;;28.70;78.80;;;;;;5014433;28;20442;-79
2023/06/19 10:25:35;;;;;;;1999.90;999.90;;;28.30;79.40;;;;;;5017805;28;20050;-79
2023/06/19 10:28:01;;;;;;;1999.90;999.90;;;28.00;80.30;;;;;;5016794;28;20045;-79
2023/06/19 10:30:29;;;;;;;1999.90;999.90;;;28.00;82.20;;;;;;5017852;28;20480;-79
2023/06/19 10:32:55;;;;;;;1999.90;999.90;;;28.00;81.30;;;;;;5017475;28;20042;-79
2023/06/19 10:35:21;;;;;;;1999.90;999.90;;;28.10;81.60;;;;;;5015999;28;20413;-78
2023/06/19 10:37:47;;;;;;;1999.90;999.90;;;28.40;81.20;;;;;;5031902;28;20045;-78
2023/06/19 10:40:13;;;;;;;1999.90;999.90;;;28.50;81.40;;;;;;5016727;28;20101;-78
2023/06/19 10:42:40;;;;;;;1999.90;999.90;;;29.00;80.30;;;;;;5016946;28;20030;-79
2023/06/19 10:45:08;;;;;;;1999.90;999.90;;;29.30;80.00;;;;;;5014832;28;20034;-79
2023/06/19 10:47:34;;;;;;;1999.90;999.90;;;29.50;77.50;;;;;;5015976;28;20034;-79
2023/06/19 10:50:00;;;;;;;1999.90;999.90;;;29.70;77.40;;;;;;5017801;28;20046;-78
2023/06/19 10:52:29;;;;;;;1999.90;999.90;;;30.20;75.90;;;;;;5019865;28;20034;-79
2023/06/19 10:54:55;;;;;;;1999.90;999.90;;;30.60;76.50;;;;;;5020300;28;20093;-78
2023/06/19 10:57:28;;;;;;;1999.90;999.90;;;30.50;74.60;;;;;;5018580;28;20081;-79
2023/06/19 10:59:54;;;;;;;1999.90;999.90;;;30.30;75.00;;;;;;5019168;28;20042;-78
2023/06/19 11:02:20;;;;;;;1999.90;999.90;;;30.00;75.30;;;;;;5017262;28;20035;-79
2023/06/19 11:04:46;;;;;;;1999.90;999.90;;;30.30;77.10;;;;;;5018683;28;20042;-78
2023/06/19 11:07:12;;;;;;;1999.90;999.90;;;30.50;74.90;;;;;;5019710;28;20045;-79
2023/06/19 11:09:38;;;;;;;1999.90;999.90;;;30.50;74.40;;;;;;5019621;28;20034;-79
2023/06/19 11:12:07;;;;;;;1999.90;999.90;;;30.20;74.50;;;;;;5018229;28;20396;-79
2023/06/19 11:14:39;;;;;;;1999.90;999.90;;;30.20;74.00;;;;;;5017937;28;20107;-79
2023/06/19 11:17:05;;;;;;;1999.90;999.90;;;30.40;74.70;;;;;;5019797;28;20027;-79
2023/06/19 11:19:33;;;;;;;1999.90;999.90;;;30.50;75.20;;;;;;5021836;28;20113;-79
2023/06/19 11:22:03;;;;;;;1999.90;999.90;;;30.50;72.40;;;;;;5019986;28;20492;-79
2023/06/19 11:24:29;;;;;;;1999.90;999.90;;;30.50;74.10;;;;;;5018523;28;20120;-79
2023/06/19 11:26:56;;;;;;;1999.90;999.90;;;30.70;73.30;;;;;;5018714;28;20508;-79
2023/06/19 11:29:32;;;;;;;1999.90;999.90;;;30.50;73.00;;;;;;5021063;28;20046;-79
2023/06/19 11:32:13;;;;;;;1999.90;999.90;;;31.00;73.30;;;;;;5020773;28;20050;-79
2023/06/19 11:34:39;;;;;;;1999.90;999.90;;;31.00;72.70;;;;;;5020582;28;20041;-79
2023/06/19 11:37:32;;;;;;;1999.90;999.90;;;31.20;71.40;;;;;;5017351;28;20030;-79
2023/06/19 11:39:59;;;;;;;1999.90;999.90;;;31.30;70.70;;;;;;5016960;28;20475;-79
2023/06/19 11:42:25;;;;;;;1999.90;999.90;;;31.40;70.80;;;;;;5019865;28;20030;-80
2023/06/19 11:45:05;;;;;;;1999.90;999.90;;;31.60;71.40;;;;;;5022103;28;20034;-79
2023/06/19 11:47:31;;;;;;;1999.90;999.90;;;31.60;69.40;;;;;;5020458;28;20504;-79
2023/06/19 11:49:57;;;;;;;1999.90;999.90;;;31.80;69.90;;;;;;5019837;28;20152;-78
2023/06/19 11:52:23;;;;;;;1999.90;999.90;;;31.20;70.00;;;;;;5018289;28;20057;-79
2023/06/19 11:54:48;;;;;;;1999.90;999.90;;;31.30;69.50;;;;;;5017323;28;20509;-79
2023/06/19 11:57:14;;;;;;;1999.90;999.90;;;31.40;69.10;;;;;;5018943;28;20489;-79